Keulen, Germany

2:05 PM CEST op 29 juli 2016 (GMT +0200)
Meigerhof | | Change Station

Hoogte 456 ft 50.87 °N, 7.21 °E | Updated 2 minutes ago

Geheel bewolkt
Geheel bewolkt
70.0 °F
Voelt als 70.0 °F
N
3.1
Wind Variabel Wind van ZO
Gusts 5.0 mijl/u

Vandaag
Hoog -- | Laag -- °F
--% Kans op neerslag
Gisteren
Hoog -- | Laag -- °F
Precip. -- inches
Druk 29.89 inches
Zicht 6.2 mijlen
Wolken Licht bewolkt 1500 ft
Merendeels bewolkt 3500 ft
Dauwpunt 65 °F
Vochtigheid 84%
Neerslag 0.13 inches
Dikte sneeuw Niet beschikbaar.
5:53 AM 9:21 PM
Afnemende halvemaan, 22% visible
METAR EDDK 291150Z 16007KT 130V230 9999 SHRA SCT015CB BKN035 21/17 Q1012 BECMG NSW
Druk 29.89 inches
Zicht 6.2 mijlen
Wolken Licht bewolkt 1500 ft
Merendeels bewolkt 3500 ft
Dauwpunt 65 °F
Vochtigheid 84%
Neerslag 0.13 inches
Dikte sneeuw Niet beschikbaar.
5:53 AM 9:21 PM
Afnemende halvemaan, 22% visible
METAR EDDK 291150Z 16007KT 130V230 9999 SHRA SCT015CB BKN035 21/17 Q1012 BECMG NSW

10-Day Weather Forecast

×

Almanac

Astronomie

Jul. 29, 2016 Opkomst Ondergang
Werkelijke tijd
Burgerlijke schemering
Nautische schemering
Astronomische schemering
Maan
Golflengte van het zichtbare licht
Daglengte
Tomorrow will be .
, % of the Moon is Illuminated

Extremen vandaag

Country Highs Country Lows

Community

WunderPhotos

Upload Photos

1,928,330 foto’s ge-upload!

WunderBlog® & News

Nearby

Luchtkwaliteit

  Luchtkwaliteit LK-index Verontreinigende stof
Not available.

Dikte sneeuw

Station Depth Geometrische hoogte

Aardbevingen

Stad Distance Mag. Time & Date
Minimum magnitude displayed is 2.5.

Watertemperatuur langs de kust

Plaats Temperatuur

Stations

Nabije weerstations

Locatie station Temp. Gevoelstemperatuur Dauwpunt Vochtigheid Wind Precip. Hoogte Geactualiseerd Type